CheckWX is a tool to help pilots better visualize weather data.  It is not intended as a substitute for an official pre-flight weather briefing.

21:58:35 UTC

VGHS METAR
Dhaka
Dhaka, Bangladesh
Current

29 mins ago

VGHS 282130Z 00000KT 1500 BR FEW100 17/15 Q1015 TEMPO S/VIS 1300M
Observed
Jan-28 @ 21:30 UTC
Visibility
1,500 meters
Flight Rules
LIFR
Conditions
Mist
Cloud Levels
  • Few at 10,000' AGL
Temperature
17°C / 63°F
Dewpoint
15°C / 59°F
Humidity
88%
Altimeter
29.97" Hg
Pressure
1014.92 hPa
Previous

59 mins ago

VGHS 282100Z 00000KT 1500 BR FEW100 17/15 Q1015 TEMPO S/VIS 1300M
Observed
Jan-28 @ 21:00 UTC
Visibility
1,500 meters
Flight Rules
LIFR
Conditions
Mist
Cloud Levels
  • Few at 10,000' AGL
Temperature
17°C / 63°F
Dewpoint
15°C / 59°F
Humidity
88%
Altimeter
29.97" Hg
Pressure
1014.92 hPa
Previous

1 hour ago

VGHS 282030Z 00000KT 1500 BR FEW100 17/15 Q1016 TEMPO S/VIS 1400M
Observed
Jan-28 @ 20:30 UTC
Visibility
1,500 meters
Flight Rules
LIFR
Conditions
Mist
Cloud Levels
  • Few at 10,000' AGL
Temperature
17°C / 63°F
Dewpoint
15°C / 59°F
Humidity
88%
Altimeter
30" Hg
Pressure
1015.92 hPa